createdAt,value
2018-03-22T00:01:50.648Z,16.97
2018-03-22T00:04:24.394Z,16.70
2018-03-22T00:06:58.442Z,17.03
2018-03-22T00:09:35.020Z,16.43
2018-03-22T00:12:10.588Z,13.70
2018-03-22T00:14:45.418Z,17.90
2018-03-22T00:17:20.117Z,15.57
2018-03-22T00:19:55.740Z,14.60
2018-03-22T00:22:38.678Z,15.13
2018-03-22T00:25:13.292Z,15.73
2018-03-22T00:27:47.087Z,13.77
2018-03-22T00:30:22.479Z,15.17
2018-03-22T00:32:57.276Z,13.63
2018-03-22T00:35:32.420Z,16.97
2018-03-22T00:38:07.251Z,14.50
2018-03-22T00:40:42.901Z,15.83
2018-03-22T00:43:17.717Z,17.70
2018-03-22T00:45:53.683Z,16.20
2018-03-22T00:48:27.814Z,16.77
2018-03-22T00:51:03.347Z,17.10
2018-03-22T00:53:38.671Z,16.20
2018-03-22T00:56:13.326Z,15.67
2018-03-22T00:58:48.024Z,14.03
2018-03-22T01:01:23.155Z,14.43
2018-03-22T01:03:57.083Z,16.00
2018-03-22T01:06:32.835Z,14.43
2018-03-22T01:09:08.588Z,15.70
2018-03-22T01:11:43.607Z,12.87
2018-03-22T01:14:17.938Z,14.37
2018-03-22T01:16:53.687Z,13.13
2018-03-22T01:19:28.683Z,16.43
2018-03-22T01:22:04.709Z,12.67
2018-03-22T01:24:39.612Z,15.40
2018-03-22T01:27:13.614Z,13.50
2018-03-22T01:29:48.941Z,13.30
2018-03-22T01:32:24.759Z,15.30
2018-03-22T01:35:00.222Z,13.87
2018-03-22T01:37:34.141Z,12.93
2018-03-22T01:40:08.268Z,13.30
2018-03-22T01:42:43.080Z,15.70
2018-03-22T01:45:18.794Z,15.67
2018-03-22T01:47:53.871Z,13.37
2018-03-22T01:50:27.685Z,11.97
2018-03-22T01:53:10.691Z,14.13
2018-03-22T01:55:45.420Z,12.37
2018-03-22T01:58:21.198Z,14.07
2018-03-22T02:00:57.762Z,14.10
2018-03-22T02:03:32.259Z,11.30
2018-03-22T02:06:06.476Z,13.00
2018-03-22T02:08:43.830Z,12.63
2018-03-22T02:11:17.955Z,13.53
2018-03-22T02:13:55.361Z,14.17
2018-03-22T02:16:31.740Z,13.43
2018-03-22T02:19:06.983Z,16.50
2018-03-22T02:21:41.782Z,12.83
2018-03-22T02:24:16.427Z,10.70
2018-03-22T02:26:51.197Z,17.57
2018-03-22T02:29:25.084Z,12.20
2018-03-22T02:32:01.430Z,12.03
2018-03-22T02:34:35.639Z,10.37
2018-03-22T02:37:10.080Z,12.20
2018-03-22T02:39:44.693Z,11.50
2018-03-22T02:42:20.751Z,13.90
2018-03-22T02:44:54.846Z,13.17
2018-03-22T02:47:31.307Z,12.90
2018-03-22T02:50:06.250Z,13.83
2018-03-22T02:52:40.270Z,14.83
2018-03-22T02:55:14.355Z,11.80
2018-03-22T02:57:48.369Z,15.47
2018-03-22T03:00:22.386Z,14.47
2018-03-22T03:02:56.795Z,11.87
2018-03-22T03:05:31.275Z,10.83
2018-03-22T03:08:05.768Z,13.13
2018-03-22T03:23:54.904Z,13.93
2018-03-22T03:26:29.219Z,13.50
2018-03-22T03:29:03.107Z,13.47
2018-03-22T03:31:37.841Z,15.70
2018-03-22T03:37:00.205Z,12.43
2018-03-22T03:39:34.635Z,15.60
2018-03-22T03:42:08.424Z,15.67
2018-03-22T03:44:43.665Z,11.83
2018-03-22T03:47:17.556Z,9.77
2018-03-22T03:49:51.572Z,10.00
2018-03-22T03:52:25.381Z,11.37
2018-03-22T03:54:59.924Z,14.23
2018-03-22T03:57:34.942Z,11.70
2018-03-22T04:00:10.057Z,12.67
2018-03-22T04:02:43.887Z,14.93
2018-03-22T04:05:18.088Z,14.80
2018-03-22T04:07:52.733Z,12.60
2018-03-22T04:10:27.334Z,13.43
2018-03-22T04:13:02.572Z,11.30
2018-03-22T04:15:36.375Z,13.13
2018-03-22T04:18:10.187Z,11.90
2018-03-22T04:20:43.866Z,14.63
2018-03-22T04:23:19.583Z,12.27
2018-03-22T04:25:55.074Z,12.57
2018-03-22T04:28:28.991Z,15.47
2018-03-22T04:31:03.720Z,13.23
2018-03-22T04:33:38.496Z,13.43
2018-03-22T04:36:12.319Z,12.53
2018-03-22T04:38:47.984Z,11.87
2018-03-22T04:41:22.829Z,12.13
2018-03-22T04:43:57.322Z,13.30
2018-03-22T04:46:31.363Z,13.37
2018-03-22T04:49:05.583Z,11.63
2018-03-22T04:51:39.352Z,13.43
2018-03-22T04:54:13.784Z,16.60
2018-03-22T04:56:48.435Z,14.03
2018-03-22T04:59:22.218Z,12.30
2018-03-22T05:01:56.530Z,11.43
2018-03-22T05:04:31.221Z,11.23
2018-03-22T05:07:05.183Z,12.00
2018-03-22T05:09:39.077Z,11.97
2018-03-22T05:12:14.147Z,12.60
2018-03-22T05:14:48.307Z,14.30
2018-03-22T05:17:23.440Z,13.33
2018-03-22T05:19:58.310Z,12.87
2018-03-22T05:22:33.276Z,14.90
2018-03-22T05:25:07.764Z,10.23
2018-03-22T05:27:41.540Z,13.03
2018-03-22T05:30:15.959Z,11.73
2018-03-22T05:32:50.575Z,12.60
2018-03-22T05:35:26.047Z,15.07
2018-03-22T05:38:00.239Z,10.73
2018-03-22T05:40:35.677Z,13.30
2018-03-22T05:43:09.588Z,12.03
2018-03-22T05:45:43.603Z,11.40
2018-03-22T05:48:19.155Z,11.47
2018-03-22T05:50:55.417Z,25.73
2018-03-22T05:53:30.038Z,15.10
2018-03-22T05:56:06.198Z,11.20
2018-03-22T05:58:40.706Z,14.50
2018-03-22T06:01:14.530Z,12.40
2018-03-22T06:03:49.140Z,12.87
2018-03-22T06:06:24.292Z,14.20
2018-03-22T06:08:59.012Z,16.50
2018-03-22T06:11:34.031Z,15.57
2018-03-22T06:14:07.819Z,13.20
2018-03-22T06:16:42.464Z,13.57
2018-03-22T06:19:17.000Z,14.27
2018-03-22T06:21:51.529Z,23.63
2018-03-22T06:24:25.747Z,18.03
2018-03-22T06:26:59.435Z,15.30
2018-03-22T06:29:33.640Z,11.03
2018-03-22T06:32:07.260Z,15.00
2018-03-22T06:34:41.264Z,17.13
2018-03-22T06:37:15.582Z,13.80
2018-03-22T06:39:49.282Z,11.63
2018-03-22T06:42:24.134Z,13.43
2018-03-22T06:44:58.005Z,12.17
2018-03-22T06:47:32.634Z,14.40
2018-03-22T06:50:06.639Z,12.03
2018-03-22T06:52:41.094Z,12.83
2018-03-22T06:55:16.396Z,14.83
2018-03-22T06:57:51.116Z,15.23
2018-03-22T07:00:25.353Z,12.20
2018-03-22T07:02:59.846Z,13.13
2018-03-22T07:05:33.673Z,17.90
2018-03-22T07:08:07.684Z,11.70
2018-03-22T07:10:42.517Z,12.43
2018-03-22T07:13:16.178Z,11.73
2018-03-22T07:15:49.892Z,14.03
2018-03-22T07:18:24.774Z,12.43
2018-03-22T07:20:58.743Z,17.63
2018-03-22T07:23:32.710Z,11.03
2018-03-22T07:26:06.655Z,14.23
2018-03-22T07:28:41.349Z,11.60
2018-03-22T07:31:16.500Z,10.57
2018-03-22T07:33:50.192Z,14.10
2018-03-22T07:36:23.877Z,13.27
2018-03-22T07:38:58.658Z,11.50
2018-03-22T07:41:33.588Z,12.87
2018-03-22T07:44:11.488Z,12.53
2018-03-22T07:46:46.363Z,9.77
2018-03-22T07:49:21.959Z,12.30
2018-03-22T07:51:56.889Z,11.07
2018-03-22T07:54:31.713Z,11.67
2018-03-22T07:57:05.994Z,14.03
2018-03-22T07:59:39.615Z,11.10
2018-03-22T08:02:15.188Z,11.73
2018-03-22T08:04:49.190Z,8.43
2018-03-22T08:07:24.336Z,8.17
2018-03-22T08:09:58.327Z,10.30
2018-03-22T08:12:32.060Z,10.60
2018-03-22T08:15:06.875Z,12.33
2018-03-22T08:17:41.411Z,10.53
2018-03-22T08:20:16.195Z,8.50
2018-03-22T08:22:50.844Z,9.63
2018-03-22T08:25:24.955Z,10.43
2018-03-22T08:27:59.469Z,8.40
2018-03-22T08:30:34.197Z,10.07
2018-03-22T08:33:08.750Z,11.20
2018-03-22T08:35:43.022Z,11.63
2018-03-22T08:38:17.265Z,9.60
2018-03-22T08:40:52.095Z,9.77
2018-03-22T08:43:27.423Z,10.67
2018-03-22T08:46:01.760Z,10.37
2018-03-22T08:48:35.702Z,8.23
2018-03-22T08:51:09.543Z,10.20
2018-03-22T08:53:43.156Z,9.43
2018-03-22T08:56:17.572Z,9.20
2018-03-22T08:58:51.394Z,10.47
2018-03-22T09:01:25.470Z,9.17
2018-03-22T09:04:00.208Z,8.47
2018-03-22T09:06:34.080Z,10.70
2018-03-22T09:09:08.218Z,10.87
2018-03-22T09:11:42.036Z,9.13
2018-03-22T09:14:15.853Z,10.20
2018-03-22T09:16:50.428Z,10.33
2018-03-22T09:19:25.303Z,10.40
2018-03-22T09:21:59.062Z,13.37
2018-03-22T09:24:32.721Z,8.73
2018-03-22T09:27:07.103Z,11.50
2018-03-22T09:29:40.920Z,7.73
2018-03-22T09:32:15.618Z,8.47
2018-03-22T09:34:49.519Z,9.07
2018-03-22T09:37:23.356Z,9.93
2018-03-22T09:39:57.318Z,8.73
2018-03-22T09:42:31.888Z,7.97
2018-03-22T09:45:07.126Z,10.77
2018-03-22T09:47:41.041Z,8.63
2018-03-22T09:50:16.211Z,9.77
2018-03-22T09:52:51.204Z,8.73
2018-03-22T09:55:25.333Z,9.67
2018-03-22T09:57:59.925Z,11.07
2018-03-22T10:00:34.773Z,10.90
2018-03-22T10:03:09.181Z,8.60
2018-03-22T10:05:43.019Z,10.50
2018-03-22T10:08:17.448Z,7.30
2018-03-22T10:10:51.356Z,8.57
2018-03-22T10:13:25.099Z,7.87
2018-03-22T10:15:59.560Z,7.33
2018-03-22T10:18:33.137Z,7.57
2018-03-22T10:21:08.076Z,8.83
2018-03-22T10:23:42.077Z,7.33
2018-03-22T10:26:16.881Z,7.80
2018-03-22T10:28:50.598Z,7.57
2018-03-22T10:31:24.249Z,7.43
2018-03-22T10:33:57.779Z,9.23
2018-03-22T10:36:31.567Z,9.40
2018-03-22T10:39:05.782Z,8.97
2018-03-22T10:41:39.634Z,8.33
2018-03-22T10:44:14.480Z,7.97
2018-03-22T10:46:49.277Z,11.00
2018-03-22T10:49:24.111Z,8.10
2018-03-22T10:51:58.644Z,8.63
2018-03-22T10:54:32.653Z,6.93
2018-03-22T10:57:07.492Z,7.60
2018-03-22T10:59:41.790Z,10.63
2018-03-22T11:02:21.107Z,6.40
2018-03-22T11:04:55.093Z,7.17
2018-03-22T11:07:30.907Z,14.87
2018-03-22T11:10:05.509Z,9.47
2018-03-22T11:12:40.127Z,60.37
2018-03-22T11:15:15.088Z,7.23
2018-03-22T11:17:48.779Z,10.03
2018-03-22T11:20:22.898Z,8.93
2018-03-22T11:22:57.405Z,6.90
2018-03-22T11:25:31.840Z,10.10
2018-03-22T11:28:06.966Z,7.73
2018-03-22T11:30:41.063Z,6.57
2018-03-22T11:33:15.714Z,10.20
2018-03-22T11:35:49.296Z,8.57
2018-03-22T11:38:23.116Z,9.13
2018-03-22T11:40:58.622Z,11.27
2018-03-22T11:43:32.450Z,10.53
2018-03-22T11:46:06.583Z,12.20
2018-03-22T11:48:40.982Z,10.30
2018-03-22T11:51:15.934Z,9.97
2018-03-22T11:53:50.560Z,8.93
2018-03-22T11:56:25.640Z,10.13
2018-03-22T11:59:00.107Z,10.37
2018-03-22T12:01:35.317Z,10.13
2018-03-22T12:04:09.946Z,10.80
2018-03-22T12:06:45.204Z,12.67
2018-03-22T12:09:18.884Z,12.13
2018-03-22T12:11:53.020Z,11.13
2018-03-22T12:14:27.726Z,12.93
2018-03-22T12:17:01.642Z,12.17
2018-03-22T12:19:36.356Z,12.47
2018-03-22T12:22:10.356Z,10.53
2018-03-22T12:24:45.286Z,10.47
2018-03-22T12:27:19.617Z,12.30
2018-03-22T12:29:54.753Z,11.20
2018-03-22T12:32:29.391Z,12.03
2018-03-22T12:35:04.213Z,12.33
2018-03-22T12:37:39.432Z,11.60
2018-03-22T12:40:14.178Z,11.20
2018-03-22T12:42:48.434Z,13.77
2018-03-22T12:45:23.277Z,11.07
2018-03-22T12:47:58.563Z,13.20
2018-03-22T12:50:32.606Z,13.20
2018-03-22T12:53:07.600Z,11.73
2018-03-22T12:55:42.518Z,14.87
2018-03-22T12:58:17.364Z,15.47
2018-03-22T13:00:51.164Z,16.97
2018-03-22T13:03:26.052Z,15.43
2018-03-22T13:05:59.800Z,12.43
2018-03-22T13:08:36.079Z,12.93
2018-03-22T13:11:10.060Z,13.70
2018-03-22T13:13:44.339Z,15.60
2018-03-22T13:16:17.994Z,14.10
2018-03-22T13:18:51.880Z,13.73
2018-03-22T13:21:25.794Z,16.00
2018-03-22T13:24:00.294Z,16.73
2018-03-22T13:26:34.663Z,15.97
2018-03-22T13:29:09.148Z,15.03
2018-03-22T13:31:42.742Z,15.77
2018-03-22T13:34:16.664Z,13.13
2018-03-22T13:36:50.635Z,12.97
2018-03-22T13:39:26.612Z,12.93
2018-03-22T13:42:01.107Z,15.13
2018-03-22T13:44:36.275Z,16.73
2018-03-22T13:47:10.892Z,17.57
2018-03-22T13:49:45.423Z,19.60
2018-03-22T13:52:19.331Z,23.30
2018-03-22T13:54:53.767Z,23.50
2018-03-22T13:57:28.262Z,21.80
2018-03-22T14:00:03.004Z,27.33
2018-03-22T14:02:37.723Z,20.77
2018-03-22T14:05:11.747Z,19.63
2018-03-22T14:07:46.459Z,12.17
2018-03-22T14:10:20.620Z,15.80
2018-03-22T14:12:54.496Z,16.10
2018-03-22T14:15:28.400Z,16.90
2018-03-22T14:18:02.893Z,17.00
2018-03-22T14:20:37.191Z,17.37
2018-03-22T14:23:11.825Z,22.83
2018-03-22T14:25:46.383Z,24.87
2018-03-22T14:28:20.267Z,26.20
2018-03-22T14:30:55.496Z,28.00
2018-03-22T14:33:30.333Z,27.27
2018-03-22T14:36:04.896Z,24.47
2018-03-22T14:38:40.296Z,25.30
2018-03-22T14:41:15.356Z,24.13
2018-03-22T14:43:50.972Z,22.67
2018-03-22T14:46:25.198Z,24.23
2018-03-22T14:48:59.297Z,20.10
2018-03-22T14:51:33.718Z,23.87
2018-03-22T14:54:08.616Z,22.10
2018-03-22T14:56:42.638Z,20.77
2018-03-22T14:59:17.395Z,21.77
2018-03-22T15:01:51.992Z,19.57
2018-03-22T15:04:26.413Z,22.63
2018-03-22T15:07:01.050Z,17.07
2018-03-22T15:09:36.568Z,18.67
2018-03-22T15:12:10.615Z,22.27
2018-03-22T15:14:45.623Z,20.23
2018-03-22T15:17:20.078Z,25.40
2018-03-22T15:19:53.869Z,17.50
2018-03-22T15:22:28.925Z,20.27
2018-03-22T15:25:02.498Z,18.87
2018-03-22T15:27:37.628Z,21.33
2018-03-22T15:30:12.174Z,19.97
2018-03-22T15:32:46.165Z,21.07
2018-03-22T15:35:20.510Z,17.80
2018-03-22T15:37:55.631Z,19.27
2018-03-22T15:40:29.423Z,23.10
2018-03-22T15:43:04.360Z,19.13
2018-03-22T15:45:39.098Z,20.30
2018-03-22T15:48:13.471Z,16.17
2018-03-22T15:50:48.621Z,22.90
2018-03-22T15:53:22.450Z,16.93
2018-03-22T15:55:56.885Z,21.53
2018-03-22T15:58:30.874Z,17.47
2018-03-22T16:01:05.289Z,20.57
2018-03-22T16:03:39.176Z,18.57
2018-03-22T16:06:13.729Z,16.70
2018-03-22T16:08:47.456Z,16.80
2018-03-22T16:11:21.963Z,18.10
2018-03-22T16:13:56.872Z,18.27
2018-03-22T16:16:30.776Z,17.60
2018-03-22T16:19:04.905Z,20.03
2018-03-22T16:21:39.416Z,22.43
2018-03-22T16:24:13.229Z,19.50
2018-03-22T16:26:47.055Z,20.20
2018-03-22T16:29:21.577Z,22.43
2018-03-22T16:31:56.520Z,31.27
2018-03-22T16:34:30.559Z,29.00
2018-03-22T16:37:05.251Z,24.20
2018-03-22T16:39:40.227Z,23.67
2018-03-22T16:42:15.266Z,20.67
2018-03-22T16:44:49.064Z,21.20
2018-03-22T16:47:25.054Z,25.13
2018-03-22T16:49:59.659Z,24.67
2018-03-22T16:52:34.764Z,25.10
2018-03-22T16:55:08.621Z,26.20
2018-03-22T16:57:42.578Z,22.10
2018-03-22T17:00:17.033Z,31.03
2018-03-22T17:02:51.789Z,24.77
2018-03-22T17:05:26.492Z,27.20
2018-03-22T17:08:01.298Z,32.90
2018-03-22T17:10:35.243Z,35.97
2018-03-22T17:13:09.136Z,36.10
2018-03-22T17:15:42.842Z,36.73
2018-03-22T17:18:18.629Z,38.90
2018-03-22T17:20:52.801Z,41.20
2018-03-22T17:23:27.785Z,48.60
2018-03-22T17:26:01.635Z,49.40
2018-03-22T17:28:35.835Z,56.90
2018-03-22T17:31:13.849Z,62.83
2018-03-22T17:33:48.467Z,46.63
2018-03-22T17:36:23.055Z,52.87
2018-03-22T17:38:58.464Z,68.27
2018-03-22T17:41:32.244Z,66.57
2018-03-22T17:44:06.816Z,65.13
2018-03-22T17:46:41.512Z,58.90
2018-03-22T17:49:16.276Z,49.93
2018-03-22T17:51:51.392Z,53.70
2018-03-22T17:54:25.839Z,61.80
2018-03-22T17:57:03.120Z,58.40
2018-03-22T17:59:37.273Z,63.37
2018-03-22T18:02:11.957Z,54.60
2018-03-22T18:04:46.197Z,47.17
2018-03-22T18:07:20.544Z,48.50
2018-03-22T18:09:54.552Z,51.17
2018-03-22T18:12:28.826Z,57.80
2018-03-22T18:15:03.168Z,52.27
2018-03-22T18:17:37.023Z,61.67
2018-03-22T18:20:10.701Z,61.20
2018-03-22T18:22:45.750Z,59.20
2018-03-22T18:25:20.747Z,60.60
2018-03-22T18:27:54.962Z,60.47
2018-03-22T18:30:29.279Z,70.00
2018-03-22T18:33:04.004Z,67.70
2018-03-22T18:35:39.457Z,61.53
2018-03-22T18:38:15.202Z,57.67
2018-03-22T18:40:50.062Z,58.87
2018-03-22T18:43:24.807Z,58.20
2018-03-22T18:45:58.658Z,56.10
2018-03-22T18:48:33.353Z,57.33
2018-03-22T18:51:07.404Z,59.00
2018-03-22T18:53:41.632Z,55.27
2018-03-22T18:56:16.554Z,50.10
2018-03-22T18:58:50.673Z,53.10
2018-03-22T19:01:26.811Z,60.90
2018-03-22T19:04:00.742Z,69.17
2018-03-22T19:06:35.445Z,70.37
2018-03-22T19:09:09.360Z,73.07
2018-03-22T19:11:44.814Z,65.33
2018-03-22T19:14:19.627Z,74.67
2018-03-22T19:16:55.791Z,65.37
2018-03-22T19:19:30.294Z,64.47
2018-03-22T19:22:05.172Z,60.13
2018-03-22T19:24:40.502Z,64.83
2018-03-22T19:27:14.804Z,71.60
2018-03-22T19:29:49.442Z,66.43
2018-03-22T19:32:24.972Z,69.23
2018-03-22T19:35:00.117Z,69.93
2018-03-22T19:37:34.659Z,67.47
2018-03-22T19:40:08.532Z,79.23
2018-03-22T19:42:45.765Z,88.53
2018-03-22T19:45:19.717Z,70.83
2018-03-22T19:47:54.562Z,70.30
2018-03-22T19:50:28.746Z,67.40
2018-03-22T19:53:02.690Z,71.07
2018-03-22T19:55:36.880Z,78.43
2018-03-22T19:58:11.646Z,67.80
2018-03-22T20:00:46.064Z,67.73
2018-03-22T20:03:21.159Z,63.07
2018-03-22T20:05:55.042Z,64.47
2018-03-22T20:08:29.513Z,56.70
2018-03-22T20:11:04.514Z,56.50
2018-03-22T20:13:39.065Z,62.63
2018-03-22T20:16:13.105Z,60.00
2018-03-22T20:18:48.021Z,55.20
2018-03-22T20:21:22.050Z,61.20
2018-03-22T20:23:56.524Z,54.57
2018-03-22T20:26:31.207Z,61.80
2018-03-22T20:29:04.927Z,57.47
2018-03-22T20:31:39.562Z,60.17
2018-03-22T20:34:13.996Z,61.07
2018-03-22T20:36:48.731Z,61.63
2018-03-22T20:39:22.509Z,65.07
2018-03-22T20:41:56.542Z,64.93
2018-03-22T20:44:30.940Z,51.03
2018-03-22T20:47:06.014Z,53.43
2018-03-22T20:49:39.694Z,57.00
2018-03-22T20:52:14.604Z,48.67
2018-03-22T20:54:49.800Z,53.40
2018-03-22T20:57:24.019Z,55.40
2018-03-22T20:59:58.612Z,50.73
2018-03-22T21:02:32.781Z,56.03
2018-03-22T21:05:07.429Z,57.47
2018-03-22T21:07:41.341Z,57.23
2018-03-22T21:10:16.337Z,56.50
2018-03-22T21:12:50.973Z,56.07
2018-03-22T21:15:25.599Z,51.83
2018-03-22T21:17:59.275Z,52.23
2018-03-22T21:20:33.129Z,55.57
2018-03-22T21:23:06.957Z,59.80
2018-03-22T21:25:40.436Z,57.17
2018-03-22T21:28:14.455Z,56.57
2018-03-22T21:30:48.976Z,59.97
2018-03-22T21:33:23.447Z,56.13
2018-03-22T21:35:58.093Z,67.70
2018-03-22T21:38:32.033Z,62.77
2018-03-22T21:41:06.997Z,65.50
2018-03-22T21:43:53.921Z,56.77
2018-03-22T21:46:28.379Z,61.23
2018-03-22T21:49:03.881Z,55.10
2018-03-22T21:51:37.699Z,58.00
2018-03-22T21:54:11.398Z,56.10
2018-03-22T21:56:45.747Z,60.93
2018-03-22T21:59:20.477Z,59.97
2018-03-22T22:01:55.491Z,64.80
2018-03-22T22:04:29.480Z,53.87
2018-03-22T22:07:04.032Z,57.13
2018-03-22T22:09:38.814Z,56.27
2018-03-22T22:12:14.887Z,57.13
2018-03-22T22:14:50.041Z,50.87
2018-03-22T22:17:24.935Z,54.13
2018-03-22T22:19:59.592Z,51.80
2018-03-22T22:22:35.122Z,43.67
2018-03-22T22:25:09.806Z,59.13
2018-03-22T22:27:44.159Z,51.03
2018-03-22T22:30:18.112Z,57.53
2018-03-22T22:32:52.823Z,61.47
2018-03-22T22:35:27.667Z,58.57
2018-03-22T22:38:02.679Z,49.50
2018-03-22T22:40:36.801Z,49.50
2018-03-22T22:43:11.043Z,51.73
2018-03-22T22:45:45.645Z,53.70
2018-03-22T22:48:19.561Z,49.90
2018-03-22T23:03:58.543Z,53.47
2018-03-22T23:06:32.861Z,49.23
2018-03-22T23:09:06.593Z,48.03
2018-03-22T23:11:40.575Z,48.23
2018-03-22T23:14:15.979Z,48.93
2018-03-22T23:16:50.341Z,54.67
2018-03-22T23:19:24.936Z,50.57
2018-03-22T23:21:59.788Z,51.60
2018-03-22T23:24:35.044Z,49.30
2018-03-22T23:27:10.139Z,48.40
2018-03-22T23:29:45.038Z,52.47
2018-03-22T23:32:19.404Z,50.03
2018-03-22T23:34:54.260Z,50.03
2018-03-22T23:37:29.283Z,48.80
2018-03-22T23:40:03.279Z,53.53
2018-03-22T23:42:38.107Z,51.47
2018-03-22T23:45:11.826Z,48.50
2018-03-22T23:47:46.459Z,48.23
2018-03-22T23:50:21.273Z,49.17
2018-03-22T23:52:56.493Z,45.60
2018-03-22T23:55:30.203Z,45.40
2018-03-22T23:58:03.906Z,46.33
